sensor_id;sensor_type;location;lat;lon;timestamp;temperature;humidity
3256;DHT22;1640;48.504;9.224;2023-06-05T00:00:59;13.80;64.50
3256;DHT22;1640;48.504;9.224;2023-06-05T00:03:27;13.80;63.30
3256;DHT22;1640;48.504;9.224;2023-06-05T00:05:56;13.70;63.30
3256;DHT22;1640;48.504;9.224;2023-06-05T00:08:23;13.70;61.60
3256;DHT22;1640;48.504;9.224;2023-06-05T00:10:52;13.60;61.40
3256;DHT22;1640;48.504;9.224;2023-06-05T00:13:20;13.60;61.30
3256;DHT22;1640;48.504;9.224;2023-06-05T00:15:48;13.50;61.10
3256;DHT22;1640;48.504;9.224;2023-06-05T00:18:16;13.50;58.80
3256;DHT22;1640;48.504;9.224;2023-06-05T00:20:44;13.50;58.00
3256;DHT22;1640;48.504;9.224;2023-06-05T00:23:13;13.40;58.50
3256;DHT22;1640;48.504;9.224;2023-06-05T00:25:41;13.40;58.80
3256;DHT22;1640;48.504;9.224;2023-06-05T00:28:10;13.30;58.50
3256;DHT22;1640;48.504;9.224;2023-06-05T00:30:38;13.30;57.10
3256;DHT22;1640;48.504;9.224;2023-06-05T00:33:05;13.20;56.30
3256;DHT22;1640;48.504;9.224;2023-06-05T00:35:33;13.20;55.40
3256;DHT22;1640;48.504;9.224;2023-06-05T00:38:01;13.20;52.90
3256;DHT22;1640;48.504;9.224;2023-06-05T00:40:28;13.10;52.90
3256;DHT22;1640;48.504;9.224;2023-06-05T00:42:56;13.10;50.80
3256;DHT22;1640;48.504;9.224;2023-06-05T00:45:25;13.00;50.60
3256;DHT22;1640;48.504;9.224;2023-06-05T00:47:54;13.00;49.70
3256;DHT22;1640;48.504;9.224;2023-06-05T00:50:22;13.00;48.70
3256;DHT22;1640;48.504;9.224;2023-06-05T00:52:51;12.90;46.30
3256;DHT22;1640;48.504;9.224;2023-06-05T00:55:19;12.90;46.70
3256;DHT22;1640;48.504;9.224;2023-06-05T00:57:47;12.90;45.20
3256;DHT22;1640;48.504;9.224;2023-06-05T01:00:15;12.90;45.20
3256;DHT22;1640;48.504;9.224;2023-06-05T01:02:44;12.80;47.00
3256;DHT22;1640;48.504;9.224;2023-06-05T01:05:12;12.80;46.30
3256;DHT22;1640;48.504;9.224;2023-06-05T01:07:40;12.70;46.10
3256;DHT22;1640;48.504;9.224;2023-06-05T01:10:09;12.70;44.10
3256;DHT22;1640;48.504;9.224;2023-06-05T01:12:43;12.60;44.80
3256;DHT22;1640;48.504;9.224;2023-06-05T01:15:12;12.60;42.50
3256;DHT22;1640;48.504;9.224;2023-06-05T01:17:43;12.60;39.60
3256;DHT22;1640;48.504;9.224;2023-06-05T01:20:13;12.60;35.60
3256;DHT22;1640;48.504;9.224;2023-06-05T01:22:41;12.60;34.10
3256;DHT22;1640;48.504;9.224;2023-06-05T01:25:10;12.60;34.50
3256;DHT22;1640;48.504;9.224;2023-06-05T01:27:42;12.50;30.80
3256;DHT22;1640;48.504;9.224;2023-06-05T01:30:16;12.50;30.70
3256;DHT22;1640;48.504;9.224;2023-06-05T01:32:51;12.40;28.90
3256;DHT22;1640;48.504;9.224;2023-06-05T01:35:22;12.40;29.50
3256;DHT22;1640;48.504;9.224;2023-06-05T01:37:54;12.30;28.40
3256;DHT22;1640;48.504;9.224;2023-06-05T01:40:26;12.30;28.50
3256;DHT22;1640;48.504;9.224;2023-06-05T01:42:54;12.30;28.90
3256;DHT22;1640;48.504;9.224;2023-06-05T01:45:23;12.30;29.20
3256;DHT22;1640;48.504;9.224;2023-06-05T01:47:51;12.20;29.70
3256;DHT22;1640;48.504;9.224;2023-06-05T01:50:20;12.20;32.60
3256;DHT22;1640;48.504;9.224;2023-06-05T01:52:47;12.20;35.70
3256;DHT22;1640;48.504;9.224;2023-06-05T01:55:17;12.20;37.30
3256;DHT22;1640;48.504;9.224;2023-06-05T01:57:47;12.20;36.90
3256;DHT22;1640;48.504;9.224;2023-06-05T02:00:15;12.20;37.20
3256;DHT22;1640;48.504;9.224;2023-06-05T02:02:45;12.20;37.50
3256;DHT22;1640;48.504;9.224;2023-06-05T02:05:14;12.20;37.90
3256;DHT22;1640;48.504;9.224;2023-06-05T02:07:45;12.20;38.00
3256;DHT22;1640;48.504;9.224;2023-06-05T02:10:15;12.30;39.00
3256;DHT22;1640;48.504;9.224;2023-06-05T02:12:46;12.20;38.10
3256;DHT22;1640;48.504;9.224;2023-06-05T02:15:14;12.20;38.00
3256;DHT22;1640;48.504;9.224;2023-06-05T02:17:42;12.20;36.50
3256;DHT22;1640;48.504;9.224;2023-06-05T02:20:16;12.20;36.40
3256;DHT22;1640;48.504;9.224;2023-06-05T02:22:44;12.20;36.20
3256;DHT22;1640;48.504;9.224;2023-06-05T02:25:16;12.10;35.30
3256;DHT22;1640;48.504;9.224;2023-06-05T02:27:44;12.10;31.60
3256;DHT22;1640;48.504;9.224;2023-06-05T02:30:13;12.00;29.00
3256;DHT22;1640;48.504;9.224;2023-06-05T02:32:41;11.90;30.50
3256;DHT22;1640;48.504;9.224;2023-06-05T02:35:10;11.90;29.10
3256;DHT22;1640;48.504;9.224;2023-06-05T02:37:38;11.80;28.40
3256;DHT22;1640;48.504;9.224;2023-06-05T02:40:10;11.80;26.60
3256;DHT22;1640;48.504;9.224;2023-06-05T02:42:38;11.80;27.00
3256;DHT22;1640;48.504;9.224;2023-06-05T02:45:07;11.70;26.60
3256;DHT22;1640;48.504;9.224;2023-06-05T02:47:37;11.70;25.50
3256;DHT22;1640;48.504;9.224;2023-06-05T02:50:06;11.70;23.80
3256;DHT22;1640;48.504;9.224;2023-06-05T02:52:34;11.60;24.20
3256;DHT22;1640;48.504;9.224;2023-06-05T02:55:05;11.60;24.20
3256;DHT22;1640;48.504;9.224;2023-06-05T02:57:33;11.60;24.20
3256;DHT22;1640;48.504;9.224;2023-06-05T03:00:08;11.60;22.80
3256;DHT22;1640;48.504;9.224;2023-06-05T03:02:37;11.50;22.60
3256;DHT22;1640;48.504;9.224;2023-06-05T03:05:06;11.50;22.90
3256;DHT22;1640;48.504;9.224;2023-06-05T03:07:34;11.50;22.80
3256;DHT22;1640;48.504;9.224;2023-06-05T03:10:02;11.50;22.40
3256;DHT22;1640;48.504;9.224;2023-06-05T03:12:30;11.40;22.40
3256;DHT22;1640;48.504;9.224;2023-06-05T03:14:58;11.40;21.50
3256;DHT22;1640;48.504;9.224;2023-06-05T03:17:26;11.40;23.50
3256;DHT22;1640;48.504;9.224;2023-06-05T03:19:56;11.40;24.00
3256;DHT22;1640;48.504;9.224;2023-06-05T03:22:24;11.50;24.00
3256;DHT22;1640;48.504;9.224;2023-06-05T03:24:52;11.40;24.60
3256;DHT22;1640;48.504;9.224;2023-06-05T03:27:20;11.40;24.30
3256;DHT22;1640;48.504;9.224;2023-06-05T03:29:47;11.40;23.60
3256;DHT22;1640;48.504;9.224;2023-06-05T03:32:15;11.40;23.10
3256;DHT22;1640;48.504;9.224;2023-06-05T03:34:43;11.40;23.50
3256;DHT22;1640;48.504;9.224;2023-06-05T03:37:16;11.40;21.50
3256;DHT22;1640;48.504;9.224;2023-06-05T03:39:43;11.40;21.90
3256;DHT22;1640;48.504;9.224;2023-06-05T03:42:11;11.30;20.90
3256;DHT22;1640;48.504;9.224;2023-06-05T03:44:39;11.30;20.00
3256;DHT22;1640;48.504;9.224;2023-06-05T03:47:07;11.30;20.50
3256;DHT22;1640;48.504;9.224;2023-06-05T03:49:34;11.30;19.80
3256;DHT22;1640;48.504;9.224;2023-06-05T03:52:02;11.30;18.40
3256;DHT22;1640;48.504;9.224;2023-06-05T03:54:32;11.30;17.60
3256;DHT22;1640;48.504;9.224;2023-06-05T03:57:00;11.30;16.10
3256;DHT22;1640;48.504;9.224;2023-06-05T03:59:28;11.30;17.90
3256;DHT22;1640;48.504;9.224;2023-06-05T04:01:56;11.30;19.10
3256;DHT22;1640;48.504;9.224;2023-06-05T04:04:24;11.30;19.60
3256;DHT22;1640;48.504;9.224;2023-06-05T04:06:54;11.40;21.10
3256;DHT22;1640;48.504;9.224;2023-06-05T04:09:22;11.40;22.60
3256;DHT22;1640;48.504;9.224;2023-06-05T04:11:52;11.40;23.40
3256;DHT22;1640;48.504;9.224;2023-06-05T04:14:19;11.40;25.30
3256;DHT22;1640;48.504;9.224;2023-06-05T04:16:48;11.50;25.20
3256;DHT22;1640;48.504;9.224;2023-06-05T04:19:15;11.50;26.40
3256;DHT22;1640;48.504;9.224;2023-06-05T04:21:43;11.50;28.40
3256;DHT22;1640;48.504;9.224;2023-06-05T04:24:11;11.50;29.70
3256;DHT22;1640;48.504;9.224;2023-06-05T04:26:40;11.50;28.80
3256;DHT22;1640;48.504;9.224;2023-06-05T04:29:10;11.50;29.80
3256;DHT22;1640;48.504;9.224;2023-06-05T04:31:41;11.60;28.60
3256;DHT22;1640;48.504;9.224;2023-06-05T04:34:09;11.70;29.10
3256;DHT22;1640;48.504;9.224;2023-06-05T04:36:37;11.70;28.90
3256;DHT22;1640;48.504;9.224;2023-06-05T04:39:04;11.80;29.70
3256;DHT22;1640;48.504;9.224;2023-06-05T04:41:37;11.90;29.50
3256;DHT22;1640;48.504;9.224;2023-06-05T04:44:12;12.00;33.10
3256;DHT22;1640;48.504;9.224;2023-06-05T04:46:42;12.00;33.80
3256;DHT22;1640;48.504;9.224;2023-06-05T04:49:10;12.10;36.00
3256;DHT22;1640;48.504;9.224;2023-06-05T04:51:38;12.10;35.00
3256;DHT22;1640;48.504;9.224;2023-06-05T04:54:07;12.30;36.80
3256;DHT22;1640;48.504;9.224;2023-06-05T04:56:34;12.30;36.90
3256;DHT22;1640;48.504;9.224;2023-06-05T04:59:03;12.40;36.50
3256;DHT22;1640;48.504;9.224;2023-06-05T05:01:32;12.40;37.50
3256;DHT22;1640;48.504;9.224;2023-06-05T05:04:00;12.50;34.60
3256;DHT22;1640;48.504;9.224;2023-06-05T05:06:28;12.60;38.30
3256;DHT22;1640;48.504;9.224;2023-06-05T05:08:57;12.70;38.00
3256;DHT22;1640;48.504;9.224;2023-06-05T05:11:25;12.80;38.10
3256;DHT22;1640;48.504;9.224;2023-06-05T05:13:53;12.90;40.20
3256;DHT22;1640;48.504;9.224;2023-06-05T05:16:21;12.90;42.50
3256;DHT22;1640;48.504;9.224;2023-06-05T05:18:50;13.00;43.40
3256;DHT22;1640;48.504;9.224;2023-06-05T05:21:18;13.10;50.20
3256;DHT22;1640;48.504;9.224;2023-06-05T05:23:45;13.20;50.60
3256;DHT22;1640;48.504;9.224;2023-06-05T05:26:13;13.30;53.30
3256;DHT22;1640;48.504;9.224;2023-06-05T05:28:41;13.40;58.50
3256;DHT22;1640;48.504;9.224;2023-06-05T05:31:08;13.50;60.30
3256;DHT22;1640;48.504;9.224;2023-06-05T05:33:36;13.70;62.00
3256;DHT22;1640;48.504;9.224;2023-06-05T05:36:05;13.80;63.20
3256;DHT22;1640;48.504;9.224;2023-06-05T05:38:34;13.90;63.70
3256;DHT22;1640;48.504;9.224;2023-06-05T05:41:01;14.10;65.70
3256;DHT22;1640;48.504;9.224;2023-06-05T05:43:29;14.30;65.30
3256;DHT22;1640;48.504;9.224;2023-06-05T05:45:57;14.40;66.30
3256;DHT22;1640;48.504;9.224;2023-06-05T05:48:24;14.50;69.30
3256;DHT22;1640;48.504;9.224;2023-06-05T05:50:52;14.70;69.50
3256;DHT22;1640;48.504;9.224;2023-06-05T05:53:21;14.70;69.50
3256;DHT22;1640;48.504;9.224;2023-06-05T05:55:49;14.90;69.20
3256;DHT22;1640;48.504;9.224;2023-06-05T05:58:16;15.00;69.60
3256;DHT22;1640;48.504;9.224;2023-06-05T06:00:44;15.10;70.80
3256;DHT22;1640;48.504;9.224;2023-06-05T06:03:13;15.30;71.30
3256;DHT22;1640;48.504;9.224;2023-06-05T06:05:41;15.40;71.10
3256;DHT22;1640;48.504;9.224;2023-06-05T06:08:11;15.50;72.10
3256;DHT22;1640;48.504;9.224;2023-06-05T06:10:40;15.60;72.10
3256;DHT22;1640;48.504;9.224;2023-06-05T06:13:09;15.50;72.10
3256;DHT22;1640;48.504;9.224;2023-06-05T06:15:36;15.50;72.50
3256;DHT22;1640;48.504;9.224;2023-06-05T06:18:05;15.50;72.60
3256;DHT22;1640;48.504;9.224;2023-06-05T06:20:33;15.50;72.90
3256;DHT22;1640;48.504;9.224;2023-06-05T06:23:01;15.40;73.10
3256;DHT22;1640;48.504;9.224;2023-06-05T06:25:30;15.50;73.10
3256;DHT22;1640;48.504;9.224;2023-06-05T06:28:00;15.70;73.40
3256;DHT22;1640;48.504;9.224;2023-06-05T06:30:28;15.80;73.60
3256;DHT22;1640;48.504;9.224;2023-06-05T06:32:56;15.90;73.60
3256;DHT22;1640;48.504;9.224;2023-06-05T06:35:25;16.00;73.50
3256;DHT22;1640;48.504;9.224;2023-06-05T06:37:53;16.10;73.20
3256;DHT22;1640;48.504;9.224;2023-06-05T06:40:22;16.20;73.20
3256;DHT22;1640;48.504;9.224;2023-06-05T06:42:51;16.20;73.10
3256;DHT22;1640;48.504;9.224;2023-06-05T06:45:20;16.30;72.80
3256;DHT22;1640;48.504;9.224;2023-06-05T06:47:48;16.40;72.90
3256;DHT22;1640;48.504;9.224;2023-06-05T06:50:16;16.40;72.30
3256;DHT22;1640;48.504;9.224;2023-06-05T06:52:43;16.40;72.50
3256;DHT22;1640;48.504;9.224;2023-06-05T06:55:11;16.50;72.10
3256;DHT22;1640;48.504;9.224;2023-06-05T06:57:39;16.60;71.90
3256;DHT22;1640;48.504;9.224;2023-06-05T07:00:07;16.80;72.30
3256;DHT22;1640;48.504;9.224;2023-06-05T07:02:40;17.00;72.50
3256;DHT22;1640;48.504;9.224;2023-06-05T07:05:09;17.10;71.50
3256;DHT22;1640;48.504;9.224;2023-06-05T07:07:37;17.20;71.10
3256;DHT22;1640;48.504;9.224;2023-06-05T07:10:05;17.30;70.60
3256;DHT22;1640;48.504;9.224;2023-06-05T07:12:33;17.40;70.80
3256;DHT22;1640;48.504;9.224;2023-06-05T07:15:01;17.50;70.80
3256;DHT22;1640;48.504;9.224;2023-06-05T07:17:29;17.70;69.50
3256;DHT22;1640;48.504;9.224;2023-06-05T07:19:59;17.60;69.00
3256;DHT22;1640;48.504;9.224;2023-06-05T07:22:26;17.70;69.30
3256;DHT22;1640;48.504;9.224;2023-06-05T07:24:56;17.80;69.50
3256;DHT22;1640;48.504;9.224;2023-06-05T07:27:24;17.80;71.80
3256;DHT22;1640;48.504;9.224;2023-06-05T07:29:51;17.80;71.50
3256;DHT22;1640;48.504;9.224;2023-06-05T07:32:19;17.90;71.20
3256;DHT22;1640;48.504;9.224;2023-06-05T07:34:47;18.10;70.60
3256;DHT22;1640;48.504;9.224;2023-06-05T07:37:16;18.20;69.30
3256;DHT22;1640;48.504;9.224;2023-06-05T07:39:44;18.10;69.90
3256;DHT22;1640;48.504;9.224;2023-06-05T07:42:13;18.00;69.60
3256;DHT22;1640;48.504;9.224;2023-06-05T07:44:41;17.90;70.00
3256;DHT22;1640;48.504;9.224;2023-06-05T07:47:09;18.10;70.00
3256;DHT22;1640;48.504;9.224;2023-06-05T07:49:37;18.10;71.10
3256;DHT22;1640;48.504;9.224;2023-06-05T07:52:05;18.30;69.90
3256;DHT22;1640;48.504;9.224;2023-06-05T07:54:34;18.30;69.30
3256;DHT22;1640;48.504;9.224;2023-06-05T07:57:01;18.30;70.00
3256;DHT22;1640;48.504;9.224;2023-06-05T07:59:30;18.40;70.30
3256;DHT22;1640;48.504;9.224;2023-06-05T08:01:58;18.40;71.30
3256;DHT22;1640;48.504;9.224;2023-06-05T08:04:27;18.50;71.30
3256;DHT22;1640;48.504;9.224;2023-06-05T08:06:55;18.70;71.10
3256;DHT22;1640;48.504;9.224;2023-06-05T08:09:22;18.70;70.80
3256;DHT22;1640;48.504;9.224;2023-06-05T08:11:51;18.70;69.80
3256;DHT22;1640;48.504;9.224;2023-06-05T08:14:19;18.70;70.20
3256;DHT22;1640;48.504;9.224;2023-06-05T08:16:47;18.70;70.50
3256;DHT22;1640;48.504;9.224;2023-06-05T08:19:15;18.90;69.90
3256;DHT22;1640;48.504;9.224;2023-06-05T08:21:42;19.00;68.80
3256;DHT22;1640;48.504;9.224;2023-06-05T08:24:10;19.00;69.30
3256;DHT22;1640;48.504;9.224;2023-06-05T08:26:38;19.20;69.90
3256;DHT22;1640;48.504;9.224;2023-06-05T08:29:07;19.40;69.20
3256;DHT22;1640;48.504;9.224;2023-06-05T08:31:35;19.50;68.20
3256;DHT22;1640;48.504;9.224;2023-06-05T08:34:03;19.60;69.00
3256;DHT22;1640;48.504;9.224;2023-06-05T08:36:31;19.70;68.90
3256;DHT22;1640;48.504;9.224;2023-06-05T08:38:58;19.70;68.90
3256;DHT22;1640;48.504;9.224;2023-06-05T08:41:26;19.70;69.60
3256;DHT22;1640;48.504;9.224;2023-06-05T08:43:54;20.00;69.50
3256;DHT22;1640;48.504;9.224;2023-06-05T08:46:27;20.10;69.50
3256;DHT22;1640;48.504;9.224;2023-06-05T08:48:57;20.20;69.90
3256;DHT22;1640;48.504;9.224;2023-06-05T08:51:25;20.30;69.30
3256;DHT22;1640;48.504;9.224;2023-06-05T08:53:57;20.50;68.50
3256;DHT22;1640;48.504;9.224;2023-06-05T08:56:30;20.60;69.00
3256;DHT22;1640;48.504;9.224;2023-06-05T08:58:59;20.70;68.60
3256;DHT22;1640;48.504;9.224;2023-06-05T09:01:30;20.80;67.30
3256;DHT22;1640;48.504;9.224;2023-06-05T09:03:59;20.90;67.80
3256;DHT22;1640;48.504;9.224;2023-06-05T09:06:27;21.10;66.90
3256;DHT22;1640;48.504;9.224;2023-06-05T09:08:55;21.20;66.60
3256;DHT22;1640;48.504;9.224;2023-06-05T09:11:24;21.30;66.60
3256;DHT22;1640;48.504;9.224;2023-06-05T09:13:54;21.30;67.80
3256;DHT22;1640;48.504;9.224;2023-06-05T09:16:32;21.40;67.90
3256;DHT22;1640;48.504;9.224;2023-06-05T09:19:02;21.60;66.50
3256;DHT22;1640;48.504;9.224;2023-06-05T09:21:31;21.70;66.60
3256;DHT22;1640;48.504;9.224;2023-06-05T09:24:14;21.80;66.70
3256;DHT22;1640;48.504;9.224;2023-06-05T09:26:54;21.90;66.50
3256;DHT22;1640;48.504;9.224;2023-06-05T09:29:24;22.00;65.70
3256;DHT22;1640;48.504;9.224;2023-06-05T09:31:53;21.90;66.00
3256;DHT22;1640;48.504;9.224;2023-06-05T09:34:23;22.00;66.50
3256;DHT22;1640;48.504;9.224;2023-06-05T09:36:55;22.20;65.50
3256;DHT22;1640;48.504;9.224;2023-06-05T09:39:24;22.10;66.30
3256;DHT22;1640;48.504;9.224;2023-06-05T09:41:55;22.20;66.00
3256;DHT22;1640;48.504;9.224;2023-06-05T09:44:24;22.40;66.30
3256;DHT22;1640;48.504;9.224;2023-06-05T09:46:57;22.50;64.60
3256;DHT22;1640;48.504;9.224;2023-06-05T09:49:28;22.60;64.00
3256;DHT22;1640;48.504;9.224;2023-06-05T09:51:57;22.70;64.90
3256;DHT22;1640;48.504;9.224;2023-06-05T09:54:29;22.90;64.00
3256;DHT22;1640;48.504;9.224;2023-06-05T09:56:59;23.10;63.00
3256;DHT22;1640;48.504;9.224;2023-06-05T09:59:29;23.10;63.40
3256;DHT22;1640;48.504;9.224;2023-06-05T10:02:00;23.30;62.00
3256;DHT22;1640;48.504;9.224;2023-06-05T10:04:34;23.40;60.30
3256;DHT22;1640;48.504;9.224;2023-06-05T10:07:05;23.30;60.40
3256;DHT22;1640;48.504;9.224;2023-06-05T10:09:33;23.30;61.90
3256;DHT22;1640;48.504;9.224;2023-06-05T10:12:02;23.20;62.90
3256;DHT22;1640;48.504;9.224;2023-06-05T10:14:30;23.40;59.30
3256;DHT22;1640;48.504;9.224;2023-06-05T10:16:59;23.40;60.70
3256;DHT22;1640;48.504;9.224;2023-06-05T10:19:27;23.60;59.50
3256;DHT22;1640;48.504;9.224;2023-06-05T10:21:56;24.00;58.90
3256;DHT22;1640;48.504;9.224;2023-06-05T10:24:27;24.10;55.80
3256;DHT22;1640;48.504;9.224;2023-06-05T10:27:24;24.30;55.80
3256;DHT22;1640;48.504;9.224;2023-06-05T10:30:19;24.10;54.60
3256;DHT22;1640;48.504;9.224;2023-06-05T10:33:01;24.30;56.10
3256;DHT22;1640;48.504;9.224;2023-06-05T10:35:43;24.50;52.70
3256;DHT22;1640;48.504;9.224;2023-06-05T10:38:18;24.60;53.50
3256;DHT22;1640;48.504;9.224;2023-06-05T10:40:51;24.60;51.20
3256;DHT22;1640;48.504;9.224;2023-06-05T10:45:58;24.80;54.00
3256;DHT22;1640;48.504;9.224;2023-06-05T10:49:05;25.00;52.40
3256;DHT22;1640;48.504;9.224;2023-06-05T10:51:35;25.30;49.30
3256;DHT22;1640;48.504;9.224;2023-06-05T10:54:06;25.40;48.50
3256;DHT22;1640;48.504;9.224;2023-06-05T10:56:52;25.40;48.30
3256;DHT22;1640;48.504;9.224;2023-06-05T10:59:22;25.50;49.00
3256;DHT22;1640;48.504;9.224;2023-06-05T11:02:24;25.60;46.10
3256;DHT22;1640;48.504;9.224;2023-06-05T11:05:07;25.20;46.10
3256;DHT22;1640;48.504;9.224;2023-06-05T11:07:38;24.60;47.50
3256;DHT22;1640;48.504;9.224;2023-06-05T11:10:13;24.40;48.50
3256;DHT22;1640;48.504;9.224;2023-06-05T11:13:00;24.50;49.40
3256;DHT22;1640;48.504;9.224;2023-06-05T11:15:36;24.60;48.50
3256;DHT22;1640;48.504;9.224;2023-06-05T11:18:26;24.50;48.00
3256;DHT22;1640;48.504;9.224;2023-06-05T11:20:55;24.50;47.50
3256;DHT22;1640;48.504;9.224;2023-06-05T11:23:23;24.60;46.60
3256;DHT22;1640;48.504;9.224;2023-06-05T11:25:56;24.80;47.00
3256;DHT22;1640;48.504;9.224;2023-06-05T11:28:40;24.90;46.10
3256;DHT22;1640;48.504;9.224;2023-06-05T11:31:08;24.90;44.70
3256;DHT22;1640;48.504;9.224;2023-06-05T11:33:36;24.90;44.90
3256;DHT22;1640;48.504;9.224;2023-06-05T11:36:06;25.00;44.80
3256;DHT22;1640;48.504;9.224;2023-06-05T11:38:35;24.90;45.30
3256;DHT22;1640;48.504;9.224;2023-06-05T11:41:08;25.20;44.90
3256;DHT22;1640;48.504;9.224;2023-06-05T11:43:42;25.30;42.30
3256;DHT22;1640;48.504;9.224;2023-06-05T11:46:10;25.30;43.70
3256;DHT22;1640;48.504;9.224;2023-06-05T11:48:45;25.60;42.20
3256;DHT22;1640;48.504;9.224;2023-06-05T11:51:12;25.60;44.80
3256;DHT22;1640;48.504;9.224;2023-06-05T11:53:45;25.80;42.50
3256;DHT22;1640;48.504;9.224;2023-06-05T11:56:15;26.00;41.50
3256;DHT22;1640;48.504;9.224;2023-06-05T11:58:44;25.90;41.80
3256;DHT22;1640;48.504;9.224;2023-06-05T12:01:14;25.90;40.70
3256;DHT22;1640;48.504;9.224;2023-06-05T12:03:49;25.80;40.60
3256;DHT22;1640;48.504;9.224;2023-06-05T12:06:16;25.90;39.90
3256;DHT22;1640;48.504;9.224;2023-06-05T12:08:45;26.00;41.30
3256;DHT22;1640;48.504;9.224;2023-06-05T12:11:22;26.20;41.10
3256;DHT22;1640;48.504;9.224;2023-06-05T12:16:19;26.50;42.30
3256;DHT22;1640;48.504;9.224;2023-06-05T12:18:47;26.80;39.00
3256;DHT22;1640;48.504;9.224;2023-06-05T12:21:23;26.60;38.10
3256;DHT22;1640;48.504;9.224;2023-06-05T12:23:51;26.50;38.40
3256;DHT22;1640;48.504;9.224;2023-06-05T12:26:19;26.10;37.90
3256;DHT22;1640;48.504;9.224;2023-06-05T12:28:48;25.90;38.30
3256;DHT22;1640;48.504;9.224;2023-06-05T12:31:35;25.90;38.30
3256;DHT22;1640;48.504;9.224;2023-06-05T12:34:05;25.90;39.00
3256;DHT22;1640;48.504;9.224;2023-06-05T12:36:38;26.00;39.90
3256;DHT22;1640;48.504;9.224;2023-06-05T12:39:08;26.00;39.20
3256;DHT22;1640;48.504;9.224;2023-06-05T12:41:36;26.10;39.40
3256;DHT22;1640;48.504;9.224;2023-06-05T12:44:06;25.90;39.00
3256;DHT22;1640;48.504;9.224;2023-06-05T12:46:35;25.90;39.10
3256;DHT22;1640;48.504;9.224;2023-06-05T12:49:04;26.00;39.40
3256;DHT22;1640;48.504;9.224;2023-06-05T12:51:32;26.20;39.90
3256;DHT22;1640;48.504;9.224;2023-06-05T12:54:00;26.00;38.70
3256;DHT22;1640;48.504;9.224;2023-06-05T12:56:29;25.90;38.40
3256;DHT22;1640;48.504;9.224;2023-06-05T12:58:59;25.80;38.70
3256;DHT22;1640;48.504;9.224;2023-06-05T13:01:28;25.90;37.70
3256;DHT22;1640;48.504;9.224;2023-06-05T13:03:56;26.00;37.60
3256;DHT22;1640;48.504;9.224;2023-06-05T13:06:24;26.10;36.60
3256;DHT22;1640;48.504;9.224;2023-06-05T13:08:51;26.30;38.30
3256;DHT22;1640;48.504;9.224;2023-06-05T13:11:19;26.50;36.80
3256;DHT22;1640;48.504;9.224;2023-06-05T13:13:47;26.70;36.00
3256;DHT22;1640;48.504;9.224;2023-06-05T13:16:15;26.80;35.00
3256;DHT22;1640;48.504;9.224;2023-06-05T13:18:44;27.00;35.20
3256;DHT22;1640;48.504;9.224;2023-06-05T13:21:11;27.20;33.80
3256;DHT22;1640;48.504;9.224;2023-06-05T13:23:39;27.00;34.60
3256;DHT22;1640;48.504;9.224;2023-06-05T13:26:08;26.70;35.30
3256;DHT22;1640;48.504;9.224;2023-06-05T13:28:36;26.90;36.00
3256;DHT22;1640;48.504;9.224;2023-06-05T13:31:03;26.90;34.50
3256;DHT22;1640;48.504;9.224;2023-06-05T13:33:32;27.00;33.30
3256;DHT22;1640;48.504;9.224;2023-06-05T13:36:02;27.10;33.70
3256;DHT22;1640;48.504;9.224;2023-06-05T13:38:29;26.90;34.70
3256;DHT22;1640;48.504;9.224;2023-06-05T13:40:57;27.20;33.70
3256;DHT22;1640;48.504;9.224;2023-06-05T13:43:25;27.30;34.50
3256;DHT22;1640;48.504;9.224;2023-06-05T13:45:52;27.40;33.90
3256;DHT22;1640;48.504;9.224;2023-06-05T13:48:20;27.40;33.00
3256;DHT22;1640;48.504;9.224;2023-06-05T13:50:48;27.60;32.70
3256;DHT22;1640;48.504;9.224;2023-06-05T13:53:17;27.70;32.00
3256;DHT22;1640;48.504;9.224;2023-06-05T13:55:44;27.40;32.40
3256;DHT22;1640;48.504;9.224;2023-06-05T13:58:12;26.90;33.90
3256;DHT22;1640;48.504;9.224;2023-06-05T14:00:40;27.00;33.90
3256;DHT22;1640;48.504;9.224;2023-06-05T14:03:07;27.20;32.80
3256;DHT22;1640;48.504;9.224;2023-06-05T14:05:36;27.10;31.90
3256;DHT22;1640;48.504;9.224;2023-06-05T14:08:04;27.00;32.40
3256;DHT22;1640;48.504;9.224;2023-06-05T14:10:34;27.10;33.50
3256;DHT22;1640;48.504;9.224;2023-06-05T14:13:03;27.30;33.10
3256;DHT22;1640;48.504;9.224;2023-06-05T14:15:31;27.70;32.30
3256;DHT22;1640;48.504;9.224;2023-06-05T14:18:02;28.30;29.50
3256;DHT22;1640;48.504;9.224;2023-06-05T14:20:30;29.40;29.40
3256;DHT22;1640;48.504;9.224;2023-06-05T14:22:58;30.70;26.70
3256;DHT22;1640;48.504;9.224;2023-06-05T14:25:26;31.20;27.10
3256;DHT22;1640;48.504;9.224;2023-06-05T14:27:56;31.20;25.90
3256;DHT22;1640;48.504;9.224;2023-06-05T14:30:24;31.20;25.80
3256;DHT22;1640;48.504;9.224;2023-06-05T14:32:53;30.80;26.30
3256;DHT22;1640;48.504;9.224;2023-06-05T14:35:21;30.90;25.60
3256;DHT22;1640;48.504;9.224;2023-06-05T14:37:49;30.60;25.90
3256;DHT22;1640;48.504;9.224;2023-06-05T14:40:17;31.10;25.80
3256;DHT22;1640;48.504;9.224;2023-06-05T14:42:44;32.10;25.40
3256;DHT22;1640;48.504;9.224;2023-06-05T14:45:13;33.30;23.60
3256;DHT22;1640;48.504;9.224;2023-06-05T14:47:41;33.60;23.20
3256;DHT22;1640;48.504;9.224;2023-06-05T14:50:10;33.40;24.00
3256;DHT22;1640;48.504;9.224;2023-06-05T14:52:38;34.10;23.80
3256;DHT22;1640;48.504;9.224;2023-06-05T14:55:06;34.80;22.10
3256;DHT22;1640;48.504;9.224;2023-06-05T14:57:35;34.10;22.70
3256;DHT22;1640;48.504;9.224;2023-06-05T15:00:06;33.40;23.40
3256;DHT22;1640;48.504;9.224;2023-06-05T15:02:36;33.20;24.60
3256;DHT22;1640;48.504;9.224;2023-06-05T15:05:05;33.50;23.60
3256;DHT22;1640;48.504;9.224;2023-06-05T15:07:37;33.70;23.50
3256;DHT22;1640;48.504;9.224;2023-06-05T15:10:06;33.90;23.20
3256;DHT22;1640;48.504;9.224;2023-06-05T15:12:34;33.90;22.40
3256;DHT22;1640;48.504;9.224;2023-06-05T15:15:02;34.30;23.10
3256;DHT22;1640;48.504;9.224;2023-06-05T15:17:33;34.40;22.60
3256;DHT22;1640;48.504;9.224;2023-06-05T15:20:03;34.40;22.70
3256;DHT22;1640;48.504;9.224;2023-06-05T15:22:32;34.40;22.90
3256;DHT22;1640;48.504;9.224;2023-06-05T15:25:00;33.60;23.30
3256;DHT22;1640;48.504;9.224;2023-06-05T15:27:27;32.70;24.10
3256;DHT22;1640;48.504;9.224;2023-06-05T15:29:55;31.80;24.50
3256;DHT22;1640;48.504;9.224;2023-06-05T15:32:23;32.10;24.90
3256;DHT22;1640;48.504;9.224;2023-06-05T15:34:51;32.60;24.10
3256;DHT22;1640;48.504;9.224;2023-06-05T15:37:21;32.70;24.50
3256;DHT22;1640;48.504;9.224;2023-06-05T15:39:49;32.60;24.60
3256;DHT22;1640;48.504;9.224;2023-06-05T15:42:18;32.50;24.50
3256;DHT22;1640;48.504;9.224;2023-06-05T15:44:46;32.00;25.00
3256;DHT22;1640;48.504;9.224;2023-06-05T15:47:13;31.30;26.00
3256;DHT22;1640;48.504;9.224;2023-06-05T15:49:41;31.20;25.60
3256;DHT22;1640;48.504;9.224;2023-06-05T15:52:10;31.20;25.90
3256;DHT22;1640;48.504;9.224;2023-06-05T15:54:39;31.60;25.80
3256;DHT22;1640;48.504;9.224;2023-06-05T15:57:07;31.80;26.60
3256;DHT22;1640;48.504;9.224;2023-06-05T15:59:35;32.20;24.80
3256;DHT22;1640;48.504;9.224;2023-06-05T16:02:03;32.10;26.10
3256;DHT22;1640;48.504;9.224;2023-06-05T16:04:30;32.70;24.20
3256;DHT22;1640;48.504;9.224;2023-06-05T16:07:00;33.60;23.40
3256;DHT22;1640;48.504;9.224;2023-06-05T16:09:27;32.50;23.70
3256;DHT22;1640;48.504;9.224;2023-06-05T16:11:56;32.00;24.40
3256;DHT22;1640;48.504;9.224;2023-06-05T16:14:25;32.30;24.20
3256;DHT22;1640;48.504;9.224;2023-06-05T16:16:53;32.60;24.20
3256;DHT22;1640;48.504;9.224;2023-06-05T16:19:21;33.10;25.40
3256;DHT22;1640;48.504;9.224;2023-06-05T16:21:49;33.40;23.90